x

Columbia River Bar - 20nm West Of Columbia River Mouth (46029) Wave Buoy

8:50 - Sat 25th Oct 2014 All times are PDT. -7 hours from GMT.

  • Sig Wave height 11.8ft
  • Swell Direction
  • Peak Period 10s
  • Average Period 7s
  • Wind
    20mph, 25mph gusts
  • Sea Temp 60°f
  • Luft Temp 61°f
  • Sea Pressure 993.6mb
  • Columbia River Bar - 20nm West Of Columbia River Mouth
  • Columbia River Bar - 20nm West Of Columbia River Mouth

More Historic Weather Station data

Upgrade to MSW Pro to gain access to the past 30 days of data for over 8000 Wavebouys and Weather Stations around the globe.

Join Pro

Comparision Forecast

View Surf forecast
   
Sa 10/25 8:50 12ft 10s 7s 20 25 mph 993.6mb 60f 61f
7:50 10.5ft 10s 7s 27 31 mph 994.7mb 60f 60f
6:50 9ft 13s 6s 29 36 mph 995.5mb 60f 58f
5:50 8.5ft 13s 7s 29 36 mph 996.6mb 60f 58f
4:50 7.5ft 13s 6s 25 34 mph 997.7mb 60f 59f
3:50 8ft 12s 7s 20 25 mph 996.8mb 60f 63f
2:50 8ft 13s 7s 22 31 mph 998.2mb 60f 63f
1:50 9ft 13s 8s 18 20 mph 999.7mb 60f 61f
12:50 8.5ft 13s 7s 20 27 mph 1000.7mb 60f 60f
Fr 10/24 11:50 8ft 13s 7s 25 29 mph 1001.3mb 60f 58f
10:50 8.5ft 13s 7s 22 27 mph 1002.6mb 60f 58f
9:50 9ft 13s 8s 20 25 mph 1003.5mb 60f 57f
8:50 9ft 12s 7s 25 29 mph 1004.9mb 60f 56f
7:50 8ft 11s 7s 22 29 mph 1006.2mb 60f 56f
6:50 7.5ft 11s 7s 22 25 mph 1006.5mb 60f 56f
5:50 7.5ft 12s 8s 18 20 mph 1008.3mb 60f 57f
4:50 6.5ft 11s 7s 16 20 mph 1009.4mb 60f 58f
3:50 7.5ft 11s 7s 20 25 mph 1009.4mb 60f 58f
2:50 7ft 11s 7s 18 20 mph 1010.4mb 60f 58f
1:50 8ft 11s 7s 16 20 mph 1011.5mb 60f 58f
12:50 7ft 10s 7s 18 22 mph 1012.4mb 60f 57f
11:50 7ft 11s 7s 18 22 mph 1012.9mb 60f 57f
10:50 7.5ft 11s 7s 16 18 mph 1013.8mb 60f 57f
9:50 8ft 11s 7s 13 18 mph 1014.1mb 60f 57f
8:50 8ft 13s 7s 13 16 mph 1014.5mb 60f 57f
7:50 8.5ft 12s 7s 16 18 mph 1014.4mb 60f 58f
6:50 8ft 10s 7s 16 20 mph 1014.6mb 60f 58f
5:50 9ft 11s 8s 18 22 mph 1014.1mb 60f 58f
4:50 8ft 11s 7s 13 16 mph 1014.1mb 60f 59f
3:50 9.5ft 11s 8s 9 11 mph 1014.4mb 60f 60f
2:50 9.5ft 11s 8s 9 11 mph 1014.6mb 60f 58f
1:50 8.5ft 11s 7s 11 13 mph 1014.7mb 60f 58f
12:50 8ft 11s 7s 13 16 mph 1014.3mb 60f 58f
Do 10/23 11:50 9ft 11s 7s 9 11 mph 1014.1mb 60f 57f
10:50 8ft 11s 7s 9 11 mph 1013.5mb 60f 56f
9:50 9ft 12s 7s 16 18 mph 1013.5mb 60f 54f
8:50 9.5ft 11s 8s 9 11 mph 1012.8mb 60f 57f
7:50 9.5ft 11s 8s 4 7 mph 1012.7mb 60f 57f
6:50 9.5ft 11s 7s 11 13 mph 1012.6mb 60f 58f
5:50 9ft 11s 7s 11 13 mph 1012.2mb 60f 58f
4:50 10ft 12s 7s 7 11 mph 1011.9mb 60f 57f
3:50 9ft 12s 7s 16 18 mph 1011.2mb 60f 59f
2:50 9.5ft 11s 7s 18 25 mph 1010.9mb 60f 59f
1:50 10ft 13s 7s 11 13 mph 1010.7mb 60f 56f
12:50 10.5ft 12s 7s 20 25 mph 1009.9mb 60f 60f
11:50 12ft 12s 8s 20 25 mph 1009.2mb 60f 59f
10:50 11.5ft 13s 8s 18 20 mph 1008.8mb 60f 59f
9:50 10ft 13s 7s 16 20 mph 1008.1mb 60f 58f
8:50 10.5ft 13s 7s 16 18 mph 1007.4mb 60f 56f
7:50 12ft 11s 8s 20 27 mph 1006.3mb 60f 59f
6:50 11ft 13s 8s 20 25 mph 1005.7mb 60f 58f
5:50 12ft 12s 8s 20 22 mph 1005.5mb 60f 57f
4:50 12.5ft 13s 8s 25 29 mph 1004.9mb 60f 56f
3:50 12ft 13s 8s 13 18 mph 1004.8mb 60f 59f
2:50 12ft 10s 8s 11 13 mph 1005.2mb 60f 59f
1:50 12ft 13s 8s 18 20 mph 1005.3mb 60f 59f
12:50 11.5ft 14s 7s 16 20 mph 1005.1mb 60f 60f
Mi 10/22 11:50 13ft 13s 8s 18 20 mph 1005.2mb 60f 60f
10:50 13.5ft 9s 8s 16 18 mph 1004.9mb 60f 60f
9:50 13.5ft 9s 8s 20 27 mph 1004.2mb 60f 61f
8:50 15ft 14s 8s 22 27 mph 1003.4mb 60f 60f
7:50 15ft 14s 8s 22 29 mph 1002.5mb 60f 60f
6:50 15.5ft 14s 8s 25 29 mph 1002.1mb 60f 60f
5:50 15.5ft 14s 8s 40 49 mph 999.8mb 60f 58f
4:50 16ft 14s 8s 31 38 mph 1000.7mb 60f 59f
3:50 16.5ft 14s 8s 31 38 mph 1001.1mb 61f 60f
2:50 16.5ft 12s 8s 31 38 mph 1001.2mb 61f 59f
1:50 17.5ft 15s 8s 29 36 mph 1001.7mb 61f 59f
12:50 16.5ft 15s 8s 27 36 mph 1003mb 61f 59f
11:50 18ft 15s 10s 16 18 mph 1004.1mb 61f 59f
10:50 18ft 15s 9s 16 20 mph 1004.2mb 61f 59f
9:50 17.5ft 15s 9s 16 18 mph 1004.7mb 61f 60f
8:50 18ft 15s 9s 13 16 mph 1004.9mb 61f 60f
7:50 18.5ft 16s 9s 11 13 mph 1004.5mb 61f 61f
6:50 17.5ft 10s 9s 13 18 mph 1004.5mb 61f 61f
5:50 16.5ft 11s 8s 16 20 mph 1004.3mb 61f 60f
4:50 18ft 10s 8s 20 25 mph 1003.8mb 61f 60f
3:50 18.5ft 10s 8s 22 29 mph 1003.3mb 61f 59f
2:50 17ft 10s 8s 27 34 mph 1002.8mb 61f 61f
1:50 18ft 9s 8s 36 49 mph 1002mb 61f 59f
12:50 18ft 9s 8s 40 51 mph 1002.4mb 61f 59f
Di 10/21 11:50 19.5ft 9s 8s 43 56 mph 1003.2mb 61f 59f
10:50 16.5ft 9s 7s 38 49 mph 1003.9mb 61f 59f
9:50 19.5ft 9s 8s 38 47 mph 1004.7mb 61f 59f
8:50 17.5ft 8s 7s 43 51 mph 1005.3mb 61f 59f
7:50 15ft 8s 7s 40 51 mph 1006.5mb 61f 59f
6:50 14.5ft 8s 7s 36 45 mph 1007.5mb 61f 59f
5:50 13ft 8s 7s 36 43 mph 1008.5mb 61f 60f
4:50 13ft 8s 7s 36 43 mph 1009mb 61f 60f